createdAt,value
2019-03-13T00:01:24.080Z,5.95
2019-03-13T00:03:53.234Z,7.20
2019-03-13T00:06:22.251Z,7.08
2019-03-13T00:08:51.110Z,6.33
2019-03-13T00:11:20.250Z,7.92
2019-03-13T00:13:49.189Z,7.08
2019-03-13T00:16:18.292Z,7.80
2019-03-13T00:18:47.251Z,9.08
2019-03-13T00:21:17.191Z,8.20
2019-03-13T00:23:46.150Z,9.90
2019-03-13T00:26:15.119Z,6.53
2019-03-13T00:28:44.000Z,6.83
2019-03-13T00:31:13.051Z,7.78
2019-03-13T00:33:41.891Z,6.83
2019-03-13T00:36:10.751Z,7.70
2019-03-13T00:38:39.679Z,8.53
2019-03-13T00:41:08.569Z,7.15
2019-03-13T00:43:37.417Z,7.30
2019-03-13T00:46:06.434Z,8.98
2019-03-13T00:48:35.311Z,7.03
2019-03-13T00:51:04.231Z,8.88
2019-03-13T00:53:33.133Z,8.18
2019-03-13T00:56:01.993Z,8.00
2019-03-13T00:58:30.851Z,4.72
2019-03-13T01:01:07.335Z,8.23
2019-03-13T01:03:37.772Z,4.90
2019-03-13T01:06:23.501Z,7.90
2019-03-13T01:08:52.447Z,6.37
2019-03-13T01:11:21.286Z,5.28
2019-03-13T01:13:50.182Z,8.15
2019-03-13T01:16:19.054Z,5.00
2019-03-13T01:18:47.909Z,6.70
2019-03-13T01:21:16.768Z,5.28
2019-03-13T01:23:45.622Z,6.60
2019-03-13T01:26:14.494Z,3.85
2019-03-13T01:28:43.345Z,4.53
2019-03-13T01:31:32.180Z,8.58
2019-03-13T01:34:05.338Z,4.95
2019-03-13T01:36:34.174Z,4.60
2019-03-13T01:39:03.059Z,4.22
2019-03-13T01:41:31.939Z,5.17
2019-03-13T01:44:00.800Z,5.53
2019-03-13T01:46:29.639Z,3.75
2019-03-13T01:48:58.515Z,7.40
2019-03-13T01:51:27.363Z,6.28
2019-03-13T01:53:56.243Z,6.12
2019-03-13T01:56:25.098Z,6.62
2019-03-13T01:58:54.007Z,4.20
2019-03-13T02:01:22.859Z,6.20
2019-03-13T02:03:51.709Z,3.35
2019-03-13T02:06:20.585Z,5.03
2019-03-13T02:08:49.419Z,5.47
2019-03-13T02:11:18.294Z,8.03
2019-03-13T02:13:47.123Z,4.67
2019-03-13T02:16:16.096Z,5.33
2019-03-13T02:18:45.053Z,6.08
2019-03-13T02:21:13.960Z,5.33
2019-03-13T02:23:42.794Z,6.55
2019-03-13T02:26:11.734Z,7.30
2019-03-13T02:28:40.615Z,6.55
2019-03-13T02:31:09.462Z,6.12
2019-03-13T02:33:38.351Z,3.08
2019-03-13T02:36:07.184Z,3.55
2019-03-13T02:38:36.056Z,3.85
2019-03-13T02:41:04.905Z,2.75
2019-03-13T02:43:33.848Z,1.98
2019-03-13T02:46:02.675Z,2.17
2019-03-13T02:48:31.533Z,2.42
2019-03-13T02:51:00.432Z,4.65
2019-03-13T02:53:29.370Z,2.20
2019-03-13T02:55:58.294Z,2.35
2019-03-13T02:58:27.134Z,3.10
2019-03-13T03:01:09.824Z,3.72
2019-03-13T03:03:40.214Z,4.65
2019-03-13T03:06:09.097Z,5.67
2019-03-13T03:08:37.979Z,2.22
2019-03-13T03:11:06.850Z,4.97
2019-03-13T03:13:35.720Z,4.85
2019-03-13T03:16:04.665Z,5.10
2019-03-13T03:18:33.695Z,4.80
2019-03-13T03:21:02.529Z,2.98
2019-03-13T03:23:31.403Z,2.65
2019-03-13T03:26:00.339Z,6.20
2019-03-13T03:28:29.256Z,2.65
2019-03-13T03:30:58.181Z,4.40
2019-03-13T03:33:27.139Z,4.10
2019-03-13T03:35:56.093Z,4.58
2019-03-13T03:38:24.931Z,3.30
2019-03-13T03:40:53.870Z,4.33
2019-03-13T03:43:38.747Z,5.00
2019-03-13T03:45:53.335Z,5.40
2019-03-13T03:48:22.268Z,8.03
2019-03-13T03:50:51.145Z,6.15
2019-03-13T03:53:19.980Z,7.40
2019-03-13T03:55:49.086Z,6.10
2019-03-13T03:58:17.999Z,4.42
2019-03-13T04:00:46.944Z,5.40
2019-03-13T04:03:15.816Z,8.45
2019-03-13T04:05:44.645Z,3.47
2019-03-13T04:08:13.555Z,6.65
2019-03-13T04:10:42.379Z,4.42
2019-03-13T04:13:11.269Z,5.03
2019-03-13T04:15:40.328Z,4.75
2019-03-13T04:18:09.157Z,6.15
2019-03-13T04:20:38.080Z,3.15
2019-03-13T04:23:06.927Z,5.08
2019-03-13T04:25:35.814Z,5.30
2019-03-13T04:28:04.908Z,5.60
2019-03-13T04:30:33.730Z,5.08
2019-03-13T04:33:02.664Z,5.10
2019-03-13T04:35:31.654Z,6.92
2019-03-13T04:38:00.489Z,4.90
2019-03-13T04:40:29.372Z,5.80
2019-03-13T04:42:58.250Z,6.05
2019-03-13T04:45:27.275Z,5.60
2019-03-13T04:47:56.119Z,5.60
2019-03-13T04:50:25.027Z,7.90
2019-03-13T04:52:53.859Z,8.13
2019-03-13T04:55:22.888Z,5.35
2019-03-13T04:57:51.762Z,9.35
2019-03-13T05:00:21.409Z,5.05
2019-03-13T05:02:50.294Z,7.10
2019-03-13T05:05:37.223Z,5.70
2019-03-13T05:08:06.217Z,7.33
2019-03-13T05:10:35.096Z,4.55
2019-03-13T05:13:04.105Z,5.62
2019-03-13T05:15:33.094Z,5.12
2019-03-13T05:18:02.004Z,7.78
2019-03-13T05:20:30.912Z,4.62
2019-03-13T05:22:59.754Z,5.92
2019-03-13T05:25:28.649Z,3.98
2019-03-13T05:27:57.489Z,6.33
2019-03-13T05:30:26.375Z,11.38
2019-03-13T05:32:55.209Z,7.03
2019-03-13T05:35:24.101Z,5.42
2019-03-13T05:37:52.939Z,8.40
2019-03-13T05:40:22.072Z,6.60
2019-03-13T05:42:50.920Z,6.90
2019-03-13T05:45:19.748Z,6.22
2019-03-13T05:47:48.646Z,8.98
2019-03-13T05:50:17.674Z,7.30
2019-03-13T05:52:46.550Z,6.17
2019-03-13T05:55:15.404Z,8.05
2019-03-13T05:57:44.274Z,6.65
2019-03-13T06:00:15.779Z,7.50
2019-03-13T06:02:47.738Z,6.17
2019-03-13T06:05:15.282Z,7.60
2019-03-13T06:07:44.126Z,6.75
2019-03-13T06:10:14.500Z,8.08
2019-03-13T06:12:43.357Z,8.95
2019-03-13T06:15:14.419Z,6.22
2019-03-13T06:17:43.339Z,8.45
2019-03-13T06:20:18.262Z,5.30
2019-03-13T06:22:47.314Z,7.15
2019-03-13T06:25:16.246Z,8.03
2019-03-13T06:27:46.701Z,9.00
2019-03-13T06:30:17.479Z,5.15
2019-03-13T06:32:46.312Z,6.25
2019-03-13T06:35:15.473Z,6.05
2019-03-13T06:37:44.409Z,5.10
2019-03-13T06:40:20.981Z,6.15
2019-03-13T06:42:49.819Z,9.93
2019-03-13T06:45:18.814Z,8.73
2019-03-13T06:47:47.658Z,8.35
2019-03-13T06:50:20.976Z,7.90
2019-03-13T06:52:49.875Z,8.35
2019-03-13T06:55:18.719Z,7.05
2019-03-13T06:57:47.592Z,7.45
2019-03-13T07:00:40.570Z,10.08
2019-03-13T07:03:19.625Z,8.33
2019-03-13T07:05:53.039Z,7.62
2019-03-13T07:08:32.290Z,8.98
2019-03-13T07:11:17.820Z,9.83
2019-03-13T07:13:57.034Z,6.62
2019-03-13T07:16:43.622Z,6.03
2019-03-13T07:19:14.094Z,7.75
2019-03-13T07:22:00.335Z,10.38
2019-03-13T07:24:36.634Z,6.72
2019-03-13T07:27:16.132Z,7.08
2019-03-13T07:29:52.427Z,8.53
2019-03-13T07:32:37.929Z,8.35
2019-03-13T07:35:09.424Z,8.98
2019-03-13T07:37:45.884Z,8.23
2019-03-13T07:40:25.525Z,9.28
2019-03-13T07:42:55.935Z,8.80
2019-03-13T07:45:26.435Z,8.45
2019-03-13T07:47:56.860Z,9.73
2019-03-13T07:50:27.287Z,12.13
2019-03-13T07:52:57.737Z,10.45
2019-03-13T07:55:43.555Z,11.12
2019-03-13T07:58:23.218Z,10.75
2019-03-13T08:00:56.754Z,9.83
2019-03-13T08:03:33.291Z,8.85
2019-03-13T08:06:18.809Z,8.45
2019-03-13T08:08:49.277Z,8.50
2019-03-13T08:11:19.699Z,9.58
2019-03-13T08:14:08.554Z,8.88
2019-03-13T08:16:47.914Z,8.23
2019-03-13T08:19:33.188Z,11.78
2019-03-13T08:22:06.303Z,9.55
2019-03-13T08:24:36.728Z,11.03
2019-03-13T08:27:07.190Z,9.90
2019-03-13T08:29:40.581Z,11.70
2019-03-13T08:32:11.059Z,7.65
2019-03-13T08:34:53.627Z,8.70
2019-03-13T08:37:29.714Z,7.80
2019-03-13T08:40:03.137Z,8.75
2019-03-13T08:42:39.476Z,9.75
2019-03-13T08:45:12.974Z,8.18
2019-03-13T08:47:43.474Z,10.95
2019-03-13T08:50:30.228Z,7.70
2019-03-13T08:53:18.900Z,7.40
2019-03-13T08:55:52.275Z,8.48
2019-03-13T08:58:34.913Z,8.80
2019-03-13T09:01:14.162Z,7.83
2019-03-13T09:04:01.097Z,7.55
2019-03-13T09:06:48.029Z,8.43
2019-03-13T09:09:27.498Z,8.23
2019-03-13T09:11:57.930Z,10.60
2019-03-13T09:14:34.502Z,10.13
2019-03-13T09:17:21.105Z,7.28
2019-03-13T09:20:00.437Z,10.18
2019-03-13T09:22:33.838Z,9.23
2019-03-13T09:25:20.769Z,8.88
2019-03-13T09:27:51.181Z,10.18
2019-03-13T09:30:24.679Z,8.25
2019-03-13T09:32:58.212Z,9.15
2019-03-13T09:35:31.807Z,8.20
2019-03-13T09:38:11.550Z,7.22
2019-03-13T09:40:58.682Z,6.65
2019-03-13T09:43:32.231Z,9.10
2019-03-13T09:46:09.018Z,9.55
2019-03-13T09:48:39.436Z,7.83
2019-03-13T09:51:25.217Z,8.98
2019-03-13T09:54:10.696Z,6.95
2019-03-13T09:56:41.182Z,8.68
2019-03-13T09:59:17.441Z,7.80
2019-03-13T10:01:48.036Z,6.72
2019-03-13T10:04:24.427Z,11.70
2019-03-13T10:06:54.901Z,6.05
2019-03-13T10:09:28.297Z,8.83
2019-03-13T10:12:01.808Z,7.67
2019-03-13T10:14:38.018Z,7.40
2019-03-13T10:17:11.495Z,8.35
2019-03-13T10:19:43.254Z,8.20
2019-03-13T10:22:16.836Z,8.50
2019-03-13T10:24:56.286Z,5.00
2019-03-13T10:27:29.837Z,4.90
2019-03-13T10:30:06.341Z,9.15
2019-03-13T10:32:45.902Z,5.87
2019-03-13T10:35:16.406Z,6.92
2019-03-13T10:37:49.881Z,11.48
2019-03-13T10:40:20.293Z,8.65
2019-03-13T10:42:50.697Z,5.92
2019-03-13T10:45:27.127Z,4.37
2019-03-13T10:48:03.381Z,7.37
2019-03-13T10:50:36.536Z,7.05
2019-03-13T10:53:12.748Z,7.45
2019-03-13T10:55:43.153Z,5.83
2019-03-13T10:58:25.901Z,3.75
2019-03-13T11:00:56.332Z,4.80
2019-03-13T11:03:32.716Z,3.72
2019-03-13T11:06:19.389Z,7.75
2019-03-13T11:08:49.883Z,7.37
2019-03-13T11:11:26.206Z,7.37
2019-03-13T11:14:15.881Z,8.35
2019-03-13T11:16:53.849Z,6.35
2019-03-13T11:19:24.357Z,8.98
2019-03-13T11:21:54.772Z,3.83
2019-03-13T11:24:28.118Z,4.67
2019-03-13T11:26:58.541Z,4.78
2019-03-13T11:29:46.995Z,8.25
2019-03-13T11:32:32.534Z,3.67
2019-03-13T11:35:18.185Z,5.45
2019-03-13T11:37:51.220Z,4.83
2019-03-13T11:40:24.431Z,5.27
2019-03-13T11:42:54.859Z,7.12
2019-03-13T11:45:34.449Z,4.47
2019-03-13T11:48:21.310Z,4.60
2019-03-13T11:51:03.718Z,4.83
2019-03-13T11:53:40.171Z,3.92
2019-03-13T11:56:26.902Z,6.62
2019-03-13T11:59:03.333Z,6.92
2019-03-13T12:01:45.243Z,3.27
2019-03-13T12:04:14.254Z,3.62
2019-03-13T12:06:53.377Z,2.77
2019-03-13T12:09:36.109Z,3.37
2019-03-13T12:12:15.815Z,5.20
2019-03-13T12:14:46.228Z,4.42
2019-03-13T12:17:32.983Z,4.10
2019-03-13T12:20:03.384Z,5.05
2019-03-13T12:22:49.274Z,6.03
2019-03-13T12:25:35.781Z,3.95
2019-03-13T12:28:09.109Z,4.87
2019-03-13T12:30:48.619Z,5.97
2019-03-13T12:33:21.910Z,5.58
2019-03-13T12:36:08.594Z,7.20
2019-03-13T12:38:39.110Z,3.80
2019-03-13T12:41:18.634Z,4.45
2019-03-13T12:43:51.467Z,4.90
2019-03-13T12:46:21.254Z,5.28
2019-03-13T12:49:04.084Z,7.87
2019-03-13T12:51:34.554Z,5.15
2019-03-13T12:54:14.438Z,3.10
2019-03-13T12:57:01.158Z,3.83
2019-03-13T12:59:40.720Z,3.52
2019-03-13T13:02:11.159Z,3.42
2019-03-13T13:04:50.704Z,2.85
2019-03-13T13:07:24.432Z,1.70
2019-03-13T13:10:06.914Z,2.87
2019-03-13T13:12:40.129Z,3.70
2019-03-13T13:15:27.554Z,1.75
2019-03-13T13:18:10.395Z,2.00
2019-03-13T13:20:39.305Z,1.95
2019-03-13T13:23:08.254Z,8.50
2019-03-13T13:25:37.103Z,2.10
2019-03-13T13:28:06.489Z,6.65
2019-03-13T13:30:35.334Z,3.58
2019-03-13T13:33:04.229Z,5.87
2019-03-13T13:35:33.068Z,8.08
2019-03-13T13:38:01.909Z,2.65
2019-03-13T13:40:30.830Z,3.37
2019-03-13T13:42:59.674Z,3.60
2019-03-13T13:45:34.434Z,2.87
2019-03-13T13:48:03.333Z,1.87
2019-03-13T13:50:32.181Z,2.75
2019-03-13T13:53:01.239Z,3.20
2019-03-13T13:55:30.067Z,4.08
2019-03-13T13:57:58.996Z,1.47
2019-03-13T14:00:27.907Z,1.70
2019-03-13T14:02:56.740Z,6.97
2019-03-13T14:05:25.639Z,5.83
2019-03-13T14:07:54.489Z,10.40
2019-03-13T14:10:23.383Z,6.10
2019-03-13T14:12:52.229Z,7.33
2019-03-13T14:15:21.131Z,6.28
2019-03-13T14:17:49.977Z,4.55
2019-03-13T14:20:18.872Z,5.08
2019-03-13T14:22:47.756Z,4.42
2019-03-13T14:25:16.595Z,3.00
2019-03-13T14:27:45.481Z,4.50
2019-03-13T14:30:19.197Z,3.05
2019-03-13T14:32:48.274Z,2.70
2019-03-13T14:35:17.122Z,1.80
2019-03-13T14:37:46.120Z,3.58
2019-03-13T14:40:16.887Z,2.67
2019-03-13T14:42:45.721Z,1.52
2019-03-13T14:45:19.217Z,3.60
2019-03-13T14:47:48.157Z,5.33
2019-03-13T14:50:23.708Z,4.03
2019-03-13T14:52:52.540Z,2.90
2019-03-13T14:55:21.364Z,2.17
2019-03-13T14:57:50.332Z,2.10
2019-03-13T15:00:23.650Z,4.37
2019-03-13T15:02:52.630Z,4.28
2019-03-13T15:05:21.572Z,4.40
2019-03-13T15:07:50.630Z,4.17
2019-03-13T15:10:23.022Z,4.80
2019-03-13T15:12:51.999Z,3.87
2019-03-13T15:15:22.821Z,4.87
2019-03-13T15:17:53.286Z,4.47
2019-03-13T15:20:28.573Z,3.10
2019-03-13T15:22:57.732Z,2.80
2019-03-13T15:25:26.727Z,3.62
2019-03-13T15:27:55.777Z,4.08
2019-03-13T15:30:32.420Z,6.47
2019-03-13T15:33:01.466Z,3.00
2019-03-13T15:35:30.573Z,3.22
2019-03-13T15:37:59.557Z,4.20
2019-03-13T15:40:28.523Z,2.50
2019-03-13T15:42:57.566Z,3.20
2019-03-13T15:45:32.209Z,2.62
2019-03-13T15:48:01.366Z,4.30
2019-03-13T15:50:30.458Z,2.83
2019-03-13T15:52:59.499Z,8.35
2019-03-13T15:55:28.541Z,4.72
2019-03-13T15:57:57.503Z,8.65
2019-03-13T16:00:27.649Z,3.72
2019-03-13T16:02:56.731Z,4.37
2019-03-13T16:05:25.953Z,3.92
2019-03-13T16:07:54.938Z,2.95
2019-03-13T16:10:23.990Z,3.05
2019-03-13T16:12:54.679Z,5.47
2019-03-13T16:15:35.297Z,3.52
2019-03-13T16:18:04.720Z,7.58
2019-03-13T16:20:33.753Z,18.07
2019-03-13T16:23:03.380Z,18.65
2019-03-13T16:25:32.654Z,15.63
2019-03-13T16:28:01.711Z,12.65
2019-03-13T16:30:32.493Z,7.33
2019-03-13T16:33:01.529Z,8.33
2019-03-13T16:35:30.583Z,10.38
2019-03-13T16:37:59.552Z,4.92
2019-03-13T16:40:31.609Z,6.67
2019-03-13T16:42:59.470Z,4.70
2019-03-13T16:45:28.502Z,5.75
2019-03-13T16:47:57.608Z,4.62
2019-03-13T16:50:31.266Z,5.62
2019-03-13T16:53:01.570Z,6.95
2019-03-13T16:55:31.367Z,13.72
2019-03-13T16:58:00.497Z,9.08
2019-03-13T17:00:32.661Z,11.18
2019-03-13T17:03:03.747Z,13.43
2019-03-13T17:05:34.198Z,14.43
2019-03-13T17:08:03.322Z,14.70
2019-03-13T17:10:32.412Z,14.58
2019-03-13T17:13:01.476Z,15.72
2019-03-13T17:15:30.553Z,10.00
2019-03-13T17:17:59.601Z,5.80
2019-03-13T17:20:39.763Z,3.25
2019-03-13T17:23:08.783Z,5.35
2019-03-13T17:25:37.822Z,4.00
2019-03-13T17:28:06.924Z,3.08
2019-03-13T17:30:35.958Z,5.83
2019-03-13T17:33:11.057Z,4.53
2019-03-13T17:35:40.116Z,4.60
2019-03-13T17:38:09.092Z,3.72
2019-03-13T17:40:38.727Z,4.83
2019-03-13T17:43:08.198Z,4.55
2019-03-13T17:45:40.241Z,6.58
2019-03-13T17:48:09.334Z,7.15
2019-03-13T17:50:38.422Z,5.80
2019-03-13T17:53:07.653Z,6.42
2019-03-13T17:55:36.908Z,6.80
2019-03-13T17:58:05.931Z,7.08
2019-03-13T18:00:40.997Z,7.42
2019-03-13T18:03:10.144Z,8.90
2019-03-13T18:05:39.278Z,10.63
2019-03-13T18:08:08.346Z,5.58
2019-03-13T18:10:37.418Z,7.05
2019-03-13T18:13:06.461Z,7.00
2019-03-13T18:15:35.555Z,7.83
2019-03-13T18:18:04.696Z,7.33
2019-03-13T18:20:33.812Z,8.30
2019-03-13T18:23:02.916Z,4.83
2019-03-13T18:25:32.085Z,5.90
2019-03-13T18:28:01.148Z,8.83
2019-03-13T18:30:31.674Z,6.40
2019-03-13T18:33:00.758Z,6.65
2019-03-13T18:35:29.823Z,10.93
2019-03-13T18:37:58.946Z,13.08
2019-03-13T18:40:28.041Z,13.65
2019-03-13T18:42:57.213Z,14.40
2019-03-13T18:45:30.693Z,15.80
2019-03-13T18:47:59.873Z,18.37
2019-03-13T18:50:29.356Z,15.32
2019-03-13T18:52:58.432Z,18.57
2019-03-13T18:55:38.561Z,16.80
2019-03-13T18:58:07.661Z,12.85
2019-03-13T19:00:37.677Z,15.98
2019-03-13T19:03:10.581Z,16.32
2019-03-13T19:05:41.477Z,12.27
2019-03-13T19:08:10.653Z,11.75
2019-03-13T19:10:39.867Z,12.40
2019-03-13T19:13:09.190Z,12.20
2019-03-13T19:15:40.171Z,14.75
2019-03-13T19:18:09.126Z,11.10
2019-03-13T19:20:38.396Z,12.73
2019-03-13T19:23:07.616Z,10.05
2019-03-13T19:25:36.791Z,9.00
2019-03-13T19:28:06.093Z,9.08
2019-03-13T19:30:37.992Z,10.23
2019-03-13T19:33:07.530Z,9.95
2019-03-13T19:35:36.808Z,11.38
2019-03-13T19:38:13.661Z,9.88
2019-03-13T19:40:42.988Z,10.13
2019-03-13T19:43:12.353Z,8.00
2019-03-13T19:45:46.660Z,11.10
2019-03-13T19:48:15.962Z,8.58
2019-03-13T19:50:45.221Z,8.90
2019-03-13T19:53:14.436Z,11.57
2019-03-13T19:55:43.728Z,14.55
2019-03-13T19:58:13.003Z,10.05
2019-03-13T20:00:46.443Z,10.08
2019-03-13T20:03:20.944Z,12.18
2019-03-13T20:05:50.039Z,9.75
2019-03-13T20:08:22.049Z,10.15
2019-03-13T20:10:51.985Z,13.43
2019-03-13T20:13:22.650Z,12.00
2019-03-13T20:15:53.293Z,10.72
2019-03-13T20:18:22.488Z,7.62
2019-03-13T20:20:51.631Z,11.22
2019-03-13T20:23:22.347Z,8.65
2019-03-13T20:25:52.738Z,10.08
2019-03-13T20:28:21.885Z,10.10
2019-03-13T20:30:52.632Z,9.83
2019-03-13T20:33:21.782Z,9.43
2019-03-13T20:35:51.118Z,7.58
2019-03-13T20:38:21.754Z,10.82
2019-03-13T20:40:53.183Z,9.53
2019-03-13T20:43:22.440Z,10.72
2019-03-13T20:45:56.173Z,10.70
2019-03-13T20:48:26.912Z,11.10
2019-03-13T20:50:57.731Z,13.22
2019-03-13T20:53:27.046Z,10.40
2019-03-13T20:55:58.886Z,13.08
2019-03-13T20:58:29.845Z,13.45
2019-03-13T21:01:00.462Z,8.00
2019-03-13T21:03:29.770Z,13.32
2019-03-13T21:06:00.685Z,9.00
2019-03-13T21:08:31.067Z,9.65
2019-03-13T21:11:01.465Z,11.22
2019-03-13T21:13:40.878Z,13.72
2019-03-13T21:16:10.141Z,9.85
2019-03-13T21:18:40.561Z,12.40
2019-03-13T21:21:11.364Z,10.82
2019-03-13T21:23:40.670Z,12.78
2019-03-13T21:26:11.189Z,11.30
2019-03-13T21:28:41.193Z,14.07
2019-03-13T21:31:10.457Z,10.58
2019-03-13T21:33:40.697Z,9.88
2019-03-13T21:36:09.951Z,10.93
2019-03-13T21:38:40.923Z,9.93
2019-03-13T21:41:11.743Z,9.95
2019-03-13T21:43:40.856Z,9.25
2019-03-13T21:46:09.961Z,9.73
2019-03-13T21:48:39.191Z,8.35
2019-03-13T21:51:08.286Z,9.33
2019-03-13T21:53:37.436Z,7.25
2019-03-13T21:56:06.643Z,8.33
2019-03-13T21:58:35.754Z,9.10
2019-03-13T22:01:04.830Z,12.25
2019-03-13T22:03:33.933Z,9.63
2019-03-13T22:06:02.983Z,9.25
2019-03-13T22:08:32.044Z,9.93
2019-03-13T22:11:01.159Z,9.60
2019-03-13T22:13:30.444Z,9.43
2019-03-13T22:15:59.623Z,11.43
2019-03-13T22:18:28.566Z,9.55
2019-03-13T22:20:57.468Z,9.18
2019-03-13T22:23:26.389Z,8.03
2019-03-13T22:25:55.307Z,8.80
2019-03-13T22:28:24.176Z,12.23
2019-03-13T22:30:53.011Z,11.73
2019-03-13T22:33:21.894Z,10.08
2019-03-13T22:35:50.718Z,9.38
2019-03-13T22:38:19.703Z,7.62
2019-03-13T22:40:48.531Z,8.45
2019-03-13T22:43:17.443Z,9.93
2019-03-13T22:45:46.340Z,9.23
2019-03-13T22:48:15.175Z,11.28
2019-03-13T22:50:44.102Z,10.55
2019-03-13T22:53:12.983Z,9.50
2019-03-13T22:55:41.844Z,8.98
2019-03-13T22:58:10.725Z,9.80
2019-03-13T23:00:53.024Z,9.58
2019-03-13T23:03:23.613Z,11.25
2019-03-13T23:05:52.783Z,9.18
2019-03-13T23:08:21.626Z,8.35
2019-03-13T23:10:50.631Z,7.87
2019-03-13T23:13:19.467Z,7.83
2019-03-13T23:15:48.292Z,5.80
2019-03-13T23:18:18.529Z,7.15
2019-03-13T23:20:47.677Z,5.62
2019-03-13T23:23:16.653Z,8.18
2019-03-13T23:25:45.578Z,8.73
2019-03-13T23:28:14.450Z,7.37
2019-03-13T23:30:43.287Z,7.70
2019-03-13T23:33:12.166Z,10.48
2019-03-13T23:35:41.002Z,9.30
2019-03-13T23:38:09.909Z,9.30
2019-03-13T23:40:38.806Z,10.13
2019-03-13T23:43:07.698Z,8.38
2019-03-13T23:45:36.592Z,9.45
2019-03-13T23:48:05.428Z,10.95
2019-03-13T23:50:34.301Z,9.43
2019-03-13T23:53:03.143Z,12.05
2019-03-13T23:55:32.013Z,9.60
2019-03-13T23:58:00.854Z,10.38
